Time;durP1;ratioP1;P1;durP2;ratioP2;P2;SDS_P1;SDS_P2;PMS_P1;PMS_P2;Temp;Humidity;BMP_temperature;BMP_pressure;BME280_temperature;BME280_humidity;BME280_pressure;Samples;Min_cycle;Max_cycle;Signal;HPM_P1;HPM_P2
2021/06/30 00:02:21;;;;;;;8.10;7.25;;;;;;;19.62;78.67;99409.09;1608929;89;21566;-77
2021/06/30 00:04:48;;;;;;;7.60;6.67;;;;;;;19.55;78.70;99412.30;1635400;87;21008;-78
2021/06/30 00:07:15;;;;;;;7.47;6.67;;;;;;;19.49;79.06;99408.09;1631422;87;21015;-78
2021/06/30 00:09:42;;;;;;;13.93;7.50;;;;;;;19.44;79.59;99406.87;1610254;87;21040;-78
2021/06/30 00:12:09;;;;;;;10.90;7.62;;;;;;;19.42;79.85;99410.46;1625350;87;21297;-78
2021/06/30 00:14:37;;;;;;;7.03;6.42;;;;;;;19.40;80.03;99410.77;1648787;87;21500;-80
2021/06/30 00:17:07;;;;;;;8.15;6.55;;;;;;;19.38;80.14;99418.44;1647163;87;21597;-81
2021/06/30 00:19:36;;;;;;;8.23;7.50;;;;;;;19.38;80.22;99423.90;1647281;85;21549;-78
2021/06/30 00:22:04;;;;;;;7.92;7.15;;;;;;;19.33;80.40;99417.22;1646576;86;21092;-77
2021/06/30 00:24:31;;;;;;;8.60;7.80;;;;;;;19.29;80.80;99422.25;1636794;86;21176;-75
2021/06/30 00:26:58;;;;;;;11.00;8.08;;;;;;;19.22;81.01;99413.17;1636157;86;21051;-76
2021/06/30 00:29:24;;;;;;;10.58;7.80;;;;;;;19.19;81.15;99421.96;1636337;87;21008;-76
2021/06/30 00:31:51;;;;;;;8.00;7.20;;;;;;;19.17;81.21;99420.13;1636344;86;22120;-75
2021/06/30 00:34:18;;;;;;;8.93;6.75;;;;;;;19.12;81.35;99412.88;1636439;87;21172;-73
2021/06/30 00:36:47;;;;;;;8.10;7.40;;;;;;;19.11;81.59;99409.91;1639970;86;21035;-75
2021/06/30 00:39:19;;;;;;;7.58;6.87;;;;;;;19.12;81.62;99403.90;1636225;86;21064;-73
2021/06/30 00:41:46;;;;;;;8.90;7.72;;;;;;;19.15;81.59;99405.98;1642326;86;21044;-73
2021/06/30 00:44:13;;;;;;;9.05;8.30;;;;;;;19.18;81.44;99411.39;1664564;86;21510;-75
2021/06/30 00:46:40;;;;;;;8.88;8.13;;;;;;;19.16;81.23;99414.42;1643277;85;21092;-76
2021/06/30 00:49:08;;;;;;;9.63;7.78;;;;;;;19.08;81.27;99409.18;1636058;86;21171;-76
2021/06/30 00:51:36;;;;;;;8.68;7.83;;;;;;;19.03;81.50;99406.59;1636069;87;21025;-76
2021/06/30 00:54:04;;;;;;;12.10;7.85;;;;;;;18.95;81.83;99405.15;1643968;86;21073;-74
2021/06/30 00:56:30;;;;;;;10.88;8.23;;;;;;;18.91;82.15;99409.62;1657138;86;21096;-76
2021/06/30 00:58:59;;;;;;;8.78;8.05;;;;;;;18.90;82.33;99412.89;1635926;87;21335;-74
2021/06/30 01:01:28;;;;;;;9.63;8.65;;;;;;;18.87;82.51;99410.80;1637945;86;22065;-75
2021/06/30 01:03:56;;;;;;;10.35;9.33;;;;;;;18.86;82.74;99413.28;1643412;86;20933;-75
2021/06/30 01:06:22;;;;;;;10.40;9.35;;;;;;;18.83;82.78;99399.48;1664521;86;21035;-75
2021/06/30 01:08:51;;;;;;;9.63;8.68;;;;;;;18.81;82.95;99397.05;1664684;86;21585;-73
2021/06/30 01:11:18;;;;;;;11.95;8.63;;;;;;;18.81;83.08;99404.42;1664401;86;21129;-73
2021/06/30 01:13:45;;;;;;;16.80;8.13;;;;;;;18.83;83.15;99398.92;1654066;85;22034;-73
2021/06/30 01:16:15;;;;;;;12.65;8.75;;;;;;;18.87;83.01;99401.82;1622382;87;20967;-76
2021/06/30 01:18:42;;;;;;;11.88;8.43;;;;;;;18.90;82.77;99397.91;1643768;87;21062;-75
2021/06/30 01:21:10;;;;;;;8.75;7.78;;;;;;;18.90;82.40;99399.27;1639281;85;21066;-76
2021/06/30 01:23:39;;;;;;;9.20;8.28;;;;;;;18.86;82.29;99401.56;1622571;87;21520;-72
2021/06/30 01:26:06;;;;;;;9.60;8.70;;;;;;;18.63;83.40;99396.70;1664845;85;21110;-73
2021/06/30 01:28:33;;;;;;;9.63;8.70;;;;;;;18.53;83.81;99399.11;1631012;86;21544;-74
2021/06/30 01:30:59;;;;;;;9.10;8.28;;;;;;;18.50;84.06;99401.63;1635100;87;21268;-72
2021/06/30 01:33:27;;;;;;;9.65;8.85;;;;;;;18.44;84.14;99403.66;1633118;86;21001;-73
2021/06/30 01:35:54;;;;;;;9.40;8.50;;;;;;;18.42;84.43;99411.88;1651271;86;21051;-73
2021/06/30 01:38:23;;;;;;;11.97;10.00;;;;;;;18.37;84.79;99419.61;1659063;86;21125;-73
2021/06/30 01:40:51;;;;;;;10.03;9.13;;;;;;;18.29;85.75;99420.34;1659057;86;21074;-74
2021/06/30 01:43:19;;;;;;;9.98;8.68;;;;;;;18.28;86.11;99418.17;1658199;86;21060;-74
2021/06/30 01:45:55;;;;;;;11.68;9.38;;;;;;;18.34;85.88;99415.34;1660008;86;20956;-73
2021/06/30 01:48:22;;;;;;;11.10;8.78;;;;;;;18.38;85.46;99422.58;1656908;86;21041;-72
2021/06/30 01:50:50;;;;;;;12.70;10.15;;;;;;;18.39;85.35;99425.56;1659116;86;21150;-73
2021/06/30 01:53:18;;;;;;;9.28;8.48;;;;;;;18.32;85.54;99420.30;1658753;86;21009;-75
2021/06/30 01:55:45;;;;;;;10.53;9.53;;;;;;;18.27;85.86;99423.36;1606243;89;21095;-75
2021/06/30 01:58:11;;;;;;;10.80;9.70;;;;;;;18.24;85.78;99428.08;1618827;88;21603;-73
2021/06/30 02:00:38;;;;;;;11.80;10.75;;;;;;;18.22;86.12;99433.59;1632143;88;21125;-74
2021/06/30 02:03:05;;;;;;;10.25;9.00;;;;;;;18.19;86.58;99436.35;1591013;90;21579;-74
2021/06/30 02:05:33;;;;;;;11.65;10.63;;;;;;;18.22;86.50;99433.59;1592749;88;21140;-72
2021/06/30 02:08:00;;;;;;;11.88;10.32;;;;;;;18.23;86.50;99431.09;1647762;87;21075;-72
2021/06/30 02:10:29;;;;;;;10.18;9.18;;;;;;;18.21;86.25;99432.78;1618824;88;21043;-72
2021/06/30 02:12:56;;;;;;;9.40;8.60;;;;;;;18.27;85.81;99432.11;1647154;86;21020;-72
2021/06/30 02:15:29;;;;;;;11.60;9.58;;;;;;;18.34;85.31;99431.67;1615466;86;21143;-73
2021/06/30 02:17:58;;;;;;;11.63;10.50;;;;;;;18.40;85.09;99432.62;1627283;88;21053;-73
2021/06/30 02:20:26;;;;;;;10.28;9.15;;;;;;;18.36;84.82;99430.83;1610067;89;21039;-73
2021/06/30 02:22:53;;;;;;;9.38;8.48;;;;;;;18.30;85.17;99435.58;1628909;86;21186;-74
2021/06/30 02:25:26;;;;;;;10.40;9.05;;;;;;;18.33;85.26;99439.59;1618089;87;21003;-74
2021/06/30 02:27:52;;;;;;;10.10;9.08;;;;;;;18.39;84.71;99444.63;1627197;88;21149;-73
2021/06/30 02:30:22;;;;;;;9.15;8.35;;;;;;;18.44;84.50;99444.51;1612340;86;21002;-74
2021/06/30 02:32:49;;;;;;;11.28;8.73;;;;;;;18.52;84.20;99443.77;1665447;86;21095;-73
2021/06/30 02:35:20;;;;;;;7.80;7.10;;;;;;;18.63;83.49;99441.64;1643144;86;20992;-74
2021/06/30 02:37:48;;;;;;;8.60;7.70;;;;;;;18.72;82.80;99446.05;1637624;87;21505;-73
2021/06/30 02:40:17;;;;;;;7.72;7.12;;;;;;;18.81;82.11;99448.02;1647201;87;21220;-73
2021/06/30 02:42:44;;;;;;;7.40;6.80;;;;;;;18.88;81.58;99453.86;1630756;86;21680;-73
2021/06/30 02:45:14;;;;;;;7.15;6.45;;;;;;;18.95;81.17;99452.29;1638465;87;21446;-74
2021/06/30 02:47:42;;;;;;;8.53;7.83;;;;;;;19.06;80.60;99446.03;1648177;87;21025;-72
2021/06/30 02:50:12;;;;;;;9.83;7.92;;;;;;;19.18;79.92;99450.92;1645729;86;20958;-74
2021/06/30 02:52:41;;;;;;;8.28;7.58;;;;;;;19.11;78.65;99442.63;1647865;86;21485;-73
2021/06/30 02:55:10;;;;;;;9.23;8.33;;;;;;;18.91;79.20;99452.66;1644856;85;22393;-74
2021/06/30 02:57:36;;;;;;;10.58;7.37;;;;;;;18.79;80.03;99455.16;1630909;87;21050;-72
2021/06/30 03:00:13;;;;;;;8.40;7.58;;;;;;;18.70;80.49;99460.52;1646025;86;21534;-73
2021/06/30 03:02:40;;;;;;;7.12;6.42;;;;;;;18.73;80.62;99460.48;1621538;88;20976;-73
2021/06/30 03:05:08;;;;;;;7.85;7.12;;;;;;;18.83;80.29;99465.69;1623961;85;21168;-74
2021/06/30 03:07:36;;;;;;;8.95;8.05;;;;;;;18.87;80.16;99463.95;1648006;87;21533;-73
2021/06/30 03:10:06;;;;;;;12.00;7.45;;;;;;;18.94;80.27;99458.07;1643770;85;21000;-73
2021/06/30 03:12:35;;;;;;;8.65;7.85;;;;;;;19.00;80.36;99451.36;1620027;88;21004;-74
2021/06/30 03:15:04;;;;;;;8.75;7.87;;;;;;;19.05;80.20;99453.40;1630466;87;21027;-74
2021/06/30 03:17:34;;;;;;;11.95;8.58;;;;;;;19.12;79.98;99452.41;1635277;86;21122;-74
2021/06/30 03:20:00;;;;;;;7.70;6.95;;;;;;;19.21;79.74;99453.83;1642076;87;21543;-73
2021/06/30 03:22:28;;;;;;;8.83;7.95;;;;;;;19.31;79.45;99458.20;1668818;85;21042;-72
2021/06/30 03:24:55;;;;;;;11.05;9.90;;;;;;;19.41;79.08;99456.58;1654898;84;21012;-74
2021/06/30 03:27:22;;;;;;;10.82;9.73;;;;;;;19.33;79.33;99451.89;1665756;85;21000;-77
2021/06/30 03:29:49;;;;;;;9.30;8.45;;;;;;;19.11;80.25;99463.06;1649107;84;21812;-76
2021/06/30 03:32:15;;;;;;;7.78;6.87;;;;;;;19.08;80.25;99465.06;1670554;85;20940;-76
2021/06/30 03:34:42;;;;;;;9.58;8.58;;;;;;;19.10;79.95;99468.82;1656268;85;21524;-76
2021/06/30 03:37:09;;;;;;;8.83;8.03;;;;;;;19.11;79.98;99466.34;1642290;85;21076;-76
2021/06/30 03:39:37;;;;;;;9.45;8.50;;;;;;;19.15;80.21;99466.78;1643924;85;21090;-78
2021/06/30 03:42:08;;;;;;;12.90;9.35;;;;;;;19.27;80.26;99467.58;1642014;87;21090;-76
2021/06/30 03:44:34;;;;;;;9.78;8.98;;;;;;;19.41;79.93;99466.13;1654375;85;21639;-77
2021/06/30 03:47:02;;;;;;;13.85;8.90;;;;;;;19.55;79.48;99468.22;1679082;84;21526;-82
2021/06/30 03:49:28;;;;;;;9.93;8.98;;;;;;;19.68;78.97;99470.04;1704397;84;21059;-77
2021/06/30 03:51:55;;;;;;;9.28;7.90;;;;;;;19.77;78.43;99472.23;1684621;84;21031;-78
2021/06/30 03:54:24;;;;;;;7.53;6.83;;;;;;;19.83;78.17;99468.25;1665606;84;21554;-78
2021/06/30 03:56:52;;;;;;;8.55;7.58;;;;;;;19.92;77.29;99477.83;1666142;85;20971;-77
2021/06/30 03:59:21;;;;;;;11.20;8.18;;;;;;;20.00;76.88;99476.48;1663884;84;21111;-77
2021/06/30 04:01:50;;;;;;;9.05;7.37;;;;;;;20.09;76.23;99472.98;1613590;87;21563;-77
2021/06/30 04:04:19;;;;;;;8.80;7.90;;;;;;;20.03;74.46;99469.59;1644677;86;21012;-77
2021/06/30 04:06:46;;;;;;;8.73;7.83;;;;;;;19.78;76.43;99465.66;1653580;86;21138;-77
2021/06/30 04:09:14;;;;;;;9.50;6.90;;;;;;;19.71;76.24;99469.39;1656206;86;21017;-77
2021/06/30 04:11:41;;;;;;;7.30;6.62;;;;;;;19.75;76.26;99475.05;1649883;84;20992;-75
2021/06/30 04:14:09;;;;;;;11.75;7.08;;;;;;;19.79;76.34;99465.11;1668687;84;21003;-76
2021/06/30 04:16:37;;;;;;;7.28;6.60;;;;;;;19.83;76.66;99468.25;1675674;85;21156;-76
2021/06/30 04:19:04;;;;;;;7.75;7.05;;;;;;;19.93;76.64;99476.16;1648864;87;21192;-77
2021/06/30 04:21:32;;;;;;;6.85;6.25;;;;;;;20.06;76.55;99476.34;1649547;87;21071;-75
2021/06/30 04:23:59;;;;;;;8.03;5.83;;;;;;;20.18;76.32;99476.54;1675624;85;21527;-74
2021/06/30 04:26:28;;;;;;;7.17;6.42;;;;;;;20.30;75.53;99482.17;1677623;85;20943;-76
2021/06/30 04:28:55;;;;;;;6.15;5.65;;;;;;;20.40;74.51;99490.09;1678734;85;21023;-74
2021/06/30 04:31:22;;;;;;;7.05;6.35;;;;;;;20.56;73.63;99487.70;1678355;85;21329;-74
2021/06/30 04:33:50;;;;;;;7.03;6.33;;;;;;;20.56;73.63;99487.70;1653978;85;21035;-74
2021/06/30 04:36:17;;;;;;;4.70;4.30;;;;;;;20.65;73.54;99483.05;1642558;87;21024;-75
2021/06/30 04:38:44;;;;;;;5.78;5.17;;;;;;;20.71;72.35;99478.48;1702761;84;20998;-74
2021/06/30 04:41:11;;;;;;;4.58;3.85;;;;;;;20.77;71.03;99481.83;1702856;84;21034;-75
2021/06/30 04:43:39;;;;;;;4.47;4.15;;;;;;;20.84;70.65;99483.53;1661210;84;21116;-74
2021/06/30 04:46:07;;;;;;;5.47;4.95;;;;;;;20.92;69.70;99488.17;1675414;85;21002;-73
2021/06/30 04:48:35;;;;;;;6.53;3.90;;;;;;;20.99;69.07;99484.96;1676355;85;21146;-74
2021/06/30 04:51:03;;;;;;;6.25;5.65;;;;;;;21.04;67.76;99489.70;1676610;85;20896;-75
2021/06/30 04:53:31;;;;;;;5.45;4.12;;;;;;;21.08;66.93;99487.92;1657978;85;21075;-74
2021/06/30 04:55:58;;;;;;;4.80;3.98;;;;;;;21.08;67.09;99483.83;1630461;87;21634;-74
2021/06/30 04:58:27;;;;;;;5.10;4.60;;;;;;;21.10;67.29;99482.14;1646043;87;20991;-74
2021/06/30 05:00:55;;;;;;;4.37;3.98;;;;;;;21.12;66.96;99482.61;1659960;85;21103;-75
2021/06/30 05:03:27;;;;;;;4.45;4.05;;;;;;;21.13;66.51;99477.38;1620326;88;21042;-75
2021/06/30 05:05:54;;;;;;;3.20;2.80;;;;;;;21.14;66.66;99472.19;1647479;87;21071;-74
2021/06/30 05:08:22;;;;;;;3.98;3.52;;;;;;;21.15;65.79;99470.47;1647546;87;21179;-75
2021/06/30 05:10:51;;;;;;;4.08;3.50;;;;;;;21.18;65.16;99471.77;1650795;85;21000;-73
2021/06/30 05:13:18;;;;;;;4.05;3.42;;;;;;;21.22;64.62;99469.43;1620304;88;21066;-75
2021/06/30 05:15:45;;;;;;;3.87;3.58;;;;;;;21.27;64.65;99467.08;1631996;86;21634;-74
2021/06/30 05:18:11;;;;;;;3.62;3.33;;;;;;;21.30;64.55;99468.59;1632319;86;21047;-74
2021/06/30 05:20:38;;;;;;;4.65;3.77;;;;;;;21.36;64.64;99469.79;1633955;86;21731;-73
2021/06/30 05:23:05;;;;;;;4.17;3.87;;;;;;;21.39;64.50;99472.66;1658795;86;21120;-72
2021/06/30 05:25:32;;;;;;;4.12;3.27;;;;;;;21.42;64.20;99477.50;1659105;86;20956;-73
2021/06/30 05:27:59;;;;;;;4.75;3.72;;;;;;;21.46;64.23;99471.61;1659096;85;21027;-76
2021/06/30 05:30:26;;;;;;;4.60;4.20;;;;;;;21.49;64.23;99479.16;1659021;86;21079;-74
2021/06/30 05:32:53;;;;;;;4.35;3.95;;;;;;;21.53;64.05;99476.59;1686536;85;21155;-73
2021/06/30 05:35:20;;;;;;;4.97;3.10;;;;;;;21.58;64.00;99474.45;1687771;85;20955;-74
2021/06/30 05:37:48;;;;;;;4.72;3.30;;;;;;;21.64;63.74;99479.19;1671369;85;20948;-74
2021/06/30 05:40:15;;;;;;;3.45;3.17;;;;;;;21.67;63.05;99474.45;1659189;86;21051;-74
2021/06/30 05:42:43;;;;;;;4.20;3.80;;;;;;;21.70;62.92;99468.30;1634417;86;21040;-73
2021/06/30 05:45:16;;;;;;;4.80;3.37;;;;;;;21.75;62.84;99470.86;1631290;86;21177;-75
2021/06/30 05:47:43;;;;;;;3.45;3.17;;;;;;;21.80;61.54;99471.23;1630457;88;21072;-74
2021/06/30 05:50:14;;;;;;;3.27;2.45;;;;;;;21.84;61.54;99479.02;1630265;88;21072;-76
2021/06/30 05:52:41;;;;;;;3.15;2.85;;;;;;;21.89;61.08;99482.39;1643342;85;21032;-75
2021/06/30 05:55:11;;;;;;;3.08;2.80;;;;;;;21.95;59.97;99484.41;1659112;86;21047;-75
2021/06/30 05:57:38;;;;;;;3.90;3.12;;;;;;;22.00;59.64;99487.77;1655994;86;21128;-76
2021/06/30 06:00:12;;;;;;;3.90;2.90;;;;;;;22.05;59.66;99491.69;1639802;86;20953;-76
2021/06/30 06:02:39;;;;;;;5.90;3.00;;;;;;;22.10;59.79;99485.22;1631734;86;21055;-75
2021/06/30 06:05:07;;;;;;;4.35;2.77;;;;;;;22.13;59.07;99488.09;1632763;86;20952;-74
2021/06/30 06:07:34;;;;;;;2.87;2.67;;;;;;;22.17;58.88;99478.06;1659243;86;21545;-74
2021/06/30 06:10:00;;;;;;;2.77;2.58;;;;;;;22.23;58.30;99480.62;1679502;84;21205;-74
2021/06/30 06:12:28;;;;;;;3.05;2.75;;;;;;;22.27;58.24;99485.66;1659005;86;21536;-75
2021/06/30 06:14:55;;;;;;;3.22;2.98;;;;;;;22.30;57.77;99479.54;1657485;84;21060;-76
2021/06/30 06:17:23;;;;;;;2.90;2.70;;;;;;;22.35;57.74;99484.83;1648893;86;21048;-77
2021/06/30 06:19:50;;;;;;;2.65;2.45;;;;;;;22.39;57.64;99483.83;1656172;86;21013;-76
2021/06/30 06:22:17;;;;;;;2.80;2.60;;;;;;;22.43;56.40;99487.50;1655605;86;21832;-77
2021/06/30 06:24:44;;;;;;;4.15;2.40;;;;;;;22.48;55.30;99484.56;1655034;86;21013;-76
2021/06/30 06:27:11;;;;;;;2.52;2.33;;;;;;;22.53;55.12;99489.85;1630800;86;20929;-77
2021/06/30 06:29:37;;;;;;;2.70;2.20;;;;;;;22.58;55.04;99489.66;1627202;88;20993;-76
2021/06/30 06:32:06;;;;;;;3.80;2.25;;;;;;;22.63;55.11;99494.13;1627365;87;21558;-76
2021/06/30 06:34:33;;;;;;;1.95;1.85;;;;;;;22.68;55.12;99492.56;1637095;86;21136;-74
2021/06/30 06:37:02;;;;;;;2.20;2.00;;;;;;;22.74;54.87;99489.05;1634924;85;21072;-75
2021/06/30 06:39:29;;;;;;;3.05;2.55;;;;;;;22.79;54.84;99491.59;1627090;87;21044;-76
2021/06/30 06:41:55;;;;;;;3.40;2.65;;;;;;;22.84;53.93;99494.94;1627396;87;21066;-74
2021/06/30 06:44:23;;;;;;;2.22;2.02;;;;;;;22.91;53.39;99501.27;1614488;86;21561;-75
2021/06/30 06:46:51;;;;;;;2.83;2.62;;;;;;;22.97;53.09;99497.19;1645358;86;21128;-75
2021/06/30 06:49:18;;;;;;;3.20;2.90;;;;;;;23.01;53.34;99498.12;1655037;86;21173;-75
2021/06/30 06:51:44;;;;;;;3.25;2.27;;;;;;;23.08;53.33;99492.87;1655243;86;21040;-75
2021/06/30 06:54:11;;;;;;;2.52;2.12;;;;;;;23.12;52.86;99482.05;1646619;86;21044;-75
2021/06/30 06:56:38;;;;;;;2.52;2.33;;;;;;;23.19;52.48;99487.77;1627533;86;21021;-74
2021/06/30 06:59:05;;;;;;;2.22;2.05;;;;;;;23.24;52.27;99480.70;1627413;88;21155;-74
2021/06/30 07:01:32;;;;;;;3.02;1.82;;;;;;;23.28;50.66;99471.45;1627475;88;21497;-73
2021/06/30 07:03:59;;;;;;;3.50;1.80;;;;;;;23.33;50.59;99476.72;1630861;86;21181;-74
2021/06/30 07:06:26;;;;;;;3.45;2.30;;;;;;;23.38;50.33;99464.16;1627228;88;21272;-74
2021/06/30 07:08:54;;;;;;;2.50;2.30;;;;;;;23.42;49.97;99463.70;1627475;86;21060;-74
2021/06/30 07:11:21;;;;;;;2.87;2.20;;;;;;;23.47;49.96;99461.33;1627142;88;23275;-74
2021/06/30 07:13:51;;;;;;;2.33;1.98;;;;;;;23.52;49.75;99462.48;1627591;86;21063;-73
2021/06/30 07:16:18;;;;;;;4.60;1.95;;;;;;;23.58;49.48;99457.58;1633776;86;20976;-74
2021/06/30 07:18:46;;;;;;;3.08;1.82;;;;;;;23.64;49.61;99461.71;1655279;86;20997;-76
2021/06/30 07:21:13;;;;;;;3.37;1.70;;;;;;;23.70;49.00;99459.75;1651955;86;21079;-77
2021/06/30 07:23:40;;;;;;;2.47;1.85;;;;;;;23.76;49.00;99456.21;1631061;86;21155;-79
2021/06/30 07:26:09;;;;;;;2.12;1.92;;;;;;;23.84;48.44;99470.39;1655215;86;21041;-76
2021/06/30 07:28:39;;;;;;;1.92;1.82;;;;;;;23.92;47.97;99469.50;1655374;86;21038;-78
2021/06/30 07:31:07;;;;;;;2.70;1.62;;;;;;;23.97;47.51;99472.59;1655468;86;21018;-76
2021/06/30 07:33:37;;;;;;;1.85;1.72;;;;;;;24.03;47.48;99473.97;1654765;86;21086;-76
2021/06/30 07:36:04;;;;;;;2.17;1.98;;;;;;;24.08;47.36;99475.89;1655489;86;21164;-75
2021/06/30 07:38:32;;;;;;;1.60;1.50;;;;;;;24.13;46.77;99468.78;1655433;86;20953;-76
2021/06/30 07:40:59;;;;;;;4.65;2.02;;;;;;;24.18;46.20;99463.09;1655465;86;21010;-74
2021/06/30 07:43:27;;;;;;;2.58;1.50;;;;;;;24.25;46.14;99465.27;1650005;86;21004;-76
2021/06/30 07:45:54;;;;;;;3.83;2.00;;;;;;;24.30;45.90;99462.28;1652947;86;21085;-75
2021/06/30 07:48:21;;;;;;;3.40;2.25;;;;;;;24.34;46.05;99467.31;1633953;86;21154;-76
2021/06/30 07:50:49;;;;;;;2.77;1.80;;;;;;;24.40;46.20;99465.93;1645300;86;21015;-76
2021/06/30 07:53:16;;;;;;;1.50;1.40;;;;;;;24.47;45.82;99463.95;1655384;86;20953;-77
2021/06/30 07:55:43;;;;;;;2.08;1.72;;;;;;;24.54;44.30;99460.85;1655279;86;21049;-78
2021/06/30 07:58:09;;;;;;;1.40;1.30;;;;;;;24.61;44.41;99462.42;1652605;86;21044;-76
2021/06/30 08:00:37;;;;;;;1.67;1.57;;;;;;;24.70;44.08;99469.14;1640353;86;21507;-75
2021/06/30 08:03:04;;;;;;;1.50;1.40;;;;;;;24.78;43.24;99466.84;1650288;86;21009;-76
2021/06/30 08:05:33;;;;;;;1.60;1.50;;;;;;;24.87;43.34;99470.28;1655584;86;21013;-76
2021/06/30 08:08:00;;;;;;;1.50;1.40;;;;;;;24.96;42.84;99469.55;1653102;86;21161;-75
2021/06/30 08:10:28;;;;;;;2.20;1.50;;;;;;;25.04;42.56;99472.72;1653390;86;21485;-76
2021/06/30 08:12:55;;;;;;;1.65;1.55;;;;;;;25.11;42.66;99467.42;1655253;86;21072;-74
2021/06/30 08:15:24;;;;;;;1.65;1.55;;;;;;;25.17;42.50;99464.64;1655256;86;21045;-76
2021/06/30 08:17:52;;;;;;;3.15;2.85;;;;;;;25.24;42.32;99461.27;1642401;86;21012;-74
2021/06/30 08:20:19;;;;;;;2.22;2.08;;;;;;;25.29;42.41;99462.38;1651905;86;21565;-74
2021/06/30 08:22:46;;;;;;;2.65;2.00;;;;;;;25.37;42.40;99468.89;1655380;86;21024;-76
2021/06/30 08:25:13;;;;;;;3.50;1.65;;;;;;;25.43;42.03;99466.87;1655543;86;21874;-75
2021/06/30 08:27:40;;;;;;;1.57;1.47;;;;;;;25.52;41.13;99468.08;1653957;86;21004;-76
2021/06/30 08:30:09;;;;;;;1.85;1.52;;;;;;;25.61;41.23;99472.89;1655756;86;21069;-73
2021/06/30 08:32:36;;;;;;;1.80;1.55;;;;;;;25.69;40.95;99473.28;1655444;86;22107;-75
2021/06/30 08:35:04;;;;;;;1.77;1.60;;;;;;;25.77;40.10;99469.55;1644268;86;21739;-76
2021/06/30 08:37:38;;;;;;;3.95;2.22;;;;;;;25.87;40.88;99467.63;1655332;86;21229;-75
2021/06/30 08:40:01;;;;;;;2.45;1.85;;;;;;;25.96;40.89;99468.23;1654855;86;20993;-74
2021/06/30 08:42:28;;;;;;;1.92;1.82;;;;;;;26.03;40.38;99467.62;1653265;86;21017;-77
2021/06/30 08:44:54;;;;;;;5.83;1.67;;;;;;;26.11;40.18;99474.89;1644292;86;21521;-75
2021/06/30 08:47:22;;;;;;;1.75;1.60;;;;;;;26.16;40.45;99468.30;1627171;87;21147;-75
2021/06/30 08:49:49;;;;;;;3.72;2.12;;;;;;;26.18;40.10;99471.51;1627142;88;21853;-75
2021/06/30 08:52:16;;;;;;;3.58;1.50;;;;;;;26.17;39.94;99465.19;1627190;88;21015;-74
2021/06/30 08:54:44;;;;;;;1.82;1.72;;;;;;;26.19;39.42;99464.23;1632739;86;21001;-74
2021/06/30 08:57:11;;;;;;;1.80;1.70;;;;;;;26.23;39.20;99466.55;1652355;86;20949;-77
2021/06/30 08:59:38;;;;;;;1.47;1.37;;;;;;;26.29;39.57;99462.91;1655357;86;21485;-76
2021/06/30 09:02:05;;;;;;;1.65;1.55;;;;;;;26.36;39.20;99461.13;1648587;86;21148;-75
2021/06/30 09:04:33;;;;;;;2.30;1.50;;;;;;;26.47;38.98;99459.37;1650460;86;21061;-76
2021/06/30 09:07:00;;;;;;;9.08;1.75;;;;;;;26.57;38.70;99463.53;1627270;88;21048;-77
2021/06/30 09:09:30;;;;;;;4.83;1.40;;;;;;;26.67;38.37;99464.91;1634710;85;21057;-75
2021/06/30 09:12:00;;;;;;;1.57;1.47;;;;;;;26.76;38.14;99465.52;1650694;85;20970;-76
2021/06/30 09:14:35;;;;;;;1.57;1.47;;;;;;;26.82;37.85;99461.29;1624783;88;21157;-75
2021/06/30 09:17:25;;;;;;;2.42;1.95;;;;;;;26.84;37.32;99461.73;1616485;85;21143;-74
2021/06/30 09:19:56;;;;;;;2.33;1.70;;;;;;;26.82;37.53;99455.77;1630072;86;20970;-78
2021/06/30 09:22:26;;;;;;;1.95;1.85;;;;;;;26.87;37.84;99448.61;1652425;85;21032;-74
2021/06/30 09:24:57;;;;;;;5.33;1.77;;;;;;;26.98;38.07;99449.63;1660165;84;20979;-76
2021/06/30 09:27:45;;;;;;;1.72;1.60;;;;;;;27.10;37.67;99448.07;1653855;84;21586;-75
2021/06/30 09:30:13;;;;;;;1.40;1.30;;;;;;;27.22;37.63;99444.35;1621816;86;21111;-77
2021/06/30 09:32:59;;;;;;;1.50;1.40;;;;;;;27.31;36.67;99444.91;1661021;84;20910;-73
2021/06/30 09:35:30;;;;;;;1.98;1.75;;;;;;;27.37;36.90;99447.59;1659199;86;21035;-75
2021/06/30 09:37:57;;;;;;;1.42;1.32;;;;;;;27.47;36.65;99444.22;1661567;86;22281;-73
2021/06/30 09:40:43;;;;;;;3.12;1.87;;;;;;;27.51;35.58;99438.78;1661099;86;39078;-78
2021/06/30 09:43:32;;;;;;;1.40;1.30;;;;;;;27.55;35.55;99436.29;1661068;86;21035;-84
2021/06/30 09:46:00;;;;;;;2.00;1.85;;;;;;;27.63;35.00;99436.61;1681872;84;21552;-81
2021/06/30 09:48:32;;;;;;;2.50;1.60;;;;;;;27.69;34.89;99436.52;1663045;85;21563;-75
2021/06/30 09:51:00;;;;;;;1.70;1.27;;;;;;;27.72;34.08;99427.48;1640125;87;21499;-76
2021/06/30 09:53:38;;;;;;;1.77;1.67;;;;;;;27.72;34.30;99426.09;1641602;85;21175;-74
2021/06/30 09:56:37;;;;;;;3.37;1.92;;;;;;;27.74;34.50;99421.02;1670234;85;20972;-79
2021/06/30 09:59:21;;;;;;;1.85;1.65;;;;;;;27.72;34.77;99420.57;1656073;84;21521;-75
2021/06/30 10:01:55;;;;;;;2.20;1.80;;;;;;;27.74;35.08;99420.21;1642183;85;21067;-73
2021/06/30 10:04:30;;;;;;;14.83;4.00;;;;;;;27.74;36.21;99420.21;1642141;87;21076;-75
2021/06/30 10:07:03;;;;;;;10.25;2.98;;;;;;;27.66;38.82;99416.55;1641107;87;21829;-72
2021/06/30 10:09:31;;;;;;;7.03;3.27;;;;;;;27.68;39.85;99412.81;1653567;84;21023;-76
2021/06/30 10:12:02;;;;;;;14.50;4.03;;;;;;;27.65;40.22;99408.04;1632846;87;21028;-76
2021/06/30 10:14:29;;;;;;;10.08;2.80;;;;;;;27.64;40.31;99407.82;1633193;86;21059;-77
2021/06/30 10:16:57;;;;;;;4.80;2.80;;;;;;;27.62;39.59;99407.41;1632732;87;21175;-77
2021/06/30 10:19:27;;;;;;;17.32;11.20;;;;;;;27.58;39.42;99402.38;1634040;86;21260;-77
2021/06/30 10:21:54;;;;;;;5.45;3.10;;;;;;;27.59;39.65;99408.13;1642570;86;21050;-77
2021/06/30 10:24:21;;;;;;;3.25;2.80;;;;;;;27.62;39.69;99405.23;1632728;87;21585;-79
2021/06/30 10:26:49;;;;;;;6.87;4.05;;;;;;;27.68;39.42;99400.38;1632774;87;21075;-83
2021/06/30 10:29:16;;;;;;;6.83;2.83;;;;;;;27.73;40.24;99406.17;1632014;86;21111;-83
2021/06/30 10:31:45;;;;;;;3.75;2.87;;;;;;;27.85;40.08;99405.98;1660929;86;21139;-87
2021/06/30 10:34:13;;;;;;;6.95;3.12;;;;;;;27.97;38.92;99394.69;1634488;84;20992;-81
2021/06/30 10:36:54;;;;;;;3.17;2.55;;;;;;;28.01;38.55;99402.45;1656291;86;20984;-81
2021/06/30 10:39:41;;;;;;;2.98;2.52;;;;;;;28.12;38.95;99398.49;1661346;86;21050;-80
2021/06/30 10:42:35;;;;;;;2.80;2.60;;;;;;;28.35;40.04;99388.71;1660432;86;21032;-80
2021/06/30 10:45:20;;;;;;;4.00;2.83;;;;;;;28.58;38.97;99394.95;1640218;84;21180;-76
2021/06/30 10:48:07;;;;;;;12.28;3.72;;;;;;;28.76;37.00;99392.41;1652863;84;20951;-76
2021/06/30 10:50:47;;;;;;;5.80;2.70;;;;;;;28.82;36.23;99395.86;1660862;86;21050;-77
2021/06/30 10:53:26;;;;;;;2.80;2.35;;;;;;;28.77;36.27;99400.35;1652631;84;21107;-78
2021/06/30 10:55:58;;;;;;;4.62;2.60;;;;;;;28.81;35.86;99391.49;1631817;87;21101;-76
2021/06/30 10:58:30;;;;;;;5.03;2.70;;;;;;;28.88;35.84;99386.60;1640224;87;21750;-76
2021/06/30 11:01:08;;;;;;;4.28;2.70;;;;;;;29.03;35.83;99381.42;1641865;84;21010;-74
2021/06/30 11:03:53;;;;;;;4.42;3.10;;;;;;;29.15;36.64;99381.75;1642296;85;21035;-73
2021/06/30 11:06:30;;;;;;;4.20;2.77;;;;;;;29.17;36.83;99381.56;1615010;87;21667;-74
2021/06/30 11:09:08;;;;;;;3.95;3.58;;;;;;;29.24;36.43;99379.45;1633137;87;21090;-74
2021/06/30 11:11:49;;;;;;;5.47;2.77;;;;;;;29.35;36.24;99378.38;1704166;84;21775;-81
2021/06/30 11:14:20;;;;;;;8.68;3.90;;;;;;;29.40;36.31;99367.56;1704154;84;21472;-78
2021/06/30 11:16:50;;;;;;;7.47;3.20;;;;;;;29.40;36.46;99366.17;1697328;83;21546;-75
2021/06/30 11:19:24;;;;;;;4.60;3.30;;;;;;;29.44;36.03;99364.22;1674956;85;21019;-79
2021/06/30 11:22:01;;;;;;;7.53;3.30;;;;;;;29.55;35.76;99366.47;1657059;84;20955;-73
2021/06/30 11:24:43;;;;;;;3.47;3.15;;;;;;;29.55;35.82;99369.23;1649542;85;21154;-73
2021/06/30 11:27:24;;;;;;;4.67;3.22;;;;;;;29.60;35.67;99354.23;1651692;85;20970;-85
2021/06/30 11:30:02;;;;;;;4.10;2.80;;;;;;;29.64;35.53;99343.98;1674191;84;20978;-74
2021/06/30 11:32:38;;;;;;;3.27;2.60;;;;;;;29.67;34.88;99339.05;1647989;87;21532;-79
2021/06/30 11:35:22;;;;;;;4.03;3.35;;;;;;;29.69;35.07;99343.00;1649069;85;21516;-76
2021/06/30 11:38:13;;;;;;;4.25;3.10;;;;;;;29.67;35.40;99334.88;1625539;87;22111;-76
2021/06/30 11:40:53;;;;;;;4.25;3.95;;;;;;;29.73;36.14;99348.01;1634528;87;21072;-79
2021/06/30 11:43:27;;;;;;;4.25;3.75;;;;;;;29.70;36.27;99350.73;1642591;87;21127;-79